Time;durP1;ratioP1;P1;durP2;ratioP2;P2;SDS_P1;SDS_P2;PMS_P1;PMS_P2;Temp;Humidity;BMP_temperature;BMP_pressure;BME280_temperature;BME280_humidity;BME280_pressure;Samples;Min_cycle;Max_cycle;Signal;HPM_P1;HPM_P2
2024/04/08 00:00:17;;;;;;;4.47;1.17;;;;;;;14.43;100.00;100335.59;5025903;28;20033;-75
2024/04/08 00:02:50;;;;;;;4.50;1.73;;;;;;;14.45;100.00;100383.75;5021376;28;20702;-74
2024/04/08 00:05:20;;;;;;;3.05;2.00;;;;;;;14.41;100.00;100420.91;5005772;28;20033;-75
2024/04/08 00:07:46;;;;;;;7.05;1.30;;;;;;;14.47;100.00;100419.28;4998960;28;20115;-75
2024/04/08 00:10:11;;;;;;;;;;;;;;;14.46;100.00;100463.28;4998770;28;20480;-75
2024/04/08 00:12:41;;;;;;;2.58;0.93;;;;;;;14.49;100.00;100521.97;5025371;28;20027;-75
2024/04/08 00:15:07;;;;;;;4.38;1.60;;;;;;;14.53;100.00;100485.66;5026730;28;20029;-75
2024/04/08 00:17:33;;;;;;;8.48;1.75;;;;;;;14.41;100.00;100474.63;5012372;28;20503;-75
2024/04/08 00:19:59;;;;;;;2.22;0.98;;;;;;;14.39;100.00;100526.88;5015499;28;20021;-75
2024/04/08 00:22:24;;;;;;;3.05;1.83;;;;;;;14.05;100.00;100576.72;5022152;28;20037;-74
2024/04/08 00:24:53;;;;;;;3.67;1.03;;;;;;;13.89;100.00;100629.59;5004172;28;20037;-75
2024/04/08 00:27:19;;;;;;;5.40;1.30;;;;;;;14.35;100.00;100653.47;5012122;28;20375;-75
2024/04/08 00:29:44;;;;;;;8.38;1.45;;;;;;;14.30;100.00;100618.28;5014182;28;20501;-75
2024/04/08 00:32:12;;;;;;;5.90;2.08;;;;;;;13.88;100.00;100608.28;5010757;28;20083;-75
2024/04/08 00:34:37;;;;;;;3.63;1.20;;;;;;;13.73;100.00;100665.50;5008623;28;20120;-75
2024/04/08 00:39:13;;;;;;;2.92;1.25;;;;;;;13.79;100.00;100716.75;5428491;26;20352;-74
2024/04/08 00:41:38;;;;;;;6.50;1.87;;;;;;;13.70;100.00;100710.66;5389661;26;20967;-74
2024/04/08 00:44:04;;;;;;;4.00;1.10;;;;;;;13.56;100.00;100698.88;5387815;26;19996;-75
2024/04/08 00:46:29;;;;;;;4.82;1.40;;;;;;;13.63;100.00;100725.81;5389401;26;19996;-74
2024/04/08 00:48:56;;;;;;;2.57;0.83;;;;;;;13.40;100.00;100723.19;5389420;26;20006;-74
2024/04/08 00:51:23;;;;;;;3.72;1.40;;;;;;;13.42;100.00;100737.25;5387862;26;20262;-74
2024/04/08 00:53:49;;;;;;;6.35;1.80;;;;;;;13.15;100.00;100733.22;5388915;26;19996;-74
2024/04/08 00:56:19;;;;;;;6.93;1.40;;;;;;;13.21;100.00;100743.25;5389173;26;20000;-75
2024/04/08 00:58:47;;;;;;;10.90;2.42;;;;;;;13.28;100.00;100746.91;5388838;26;20000;-75
2024/04/08 01:01:17;;;;;;;4.30;1.08;;;;;;;13.46;100.00;100754.63;5370893;26;20011;-75
2024/04/08 01:03:46;;;;;;;5.80;1.20;;;;;;;13.22;100.00;100731.50;5375668;26;20451;-76
2024/04/08 01:06:12;;;;;;;5.40;1.10;;;;;;;13.28;100.00;100747.75;5389018;26;20004;-75
2024/04/08 01:08:38;;;;;;;4.43;1.55;;;;;;;13.05;100.00;100753.06;5380033;26;20439;-75
2024/04/08 01:11:06;;;;;;;5.07;1.58;;;;;;;13.03;100.00;100795.28;5389358;26;20806;-75
2024/04/08 01:13:31;;;;;;;3.53;1.00;;;;;;;13.27;100.00;100788.09;5388681;26;20003;-76
2024/04/08 01:15:59;;;;;;;3.27;1.17;;;;;;;13.24;100.00;100750.94;5389416;26;20007;-76
2024/04/08 01:18:24;;;;;;;5.55;1.45;;;;;;;12.98;100.00;100735.22;5387753;26;20085;-75
2024/04/08 01:20:49;;;;;;;6.20;1.97;;;;;;;12.92;100.00;100742.09;5387072;26;19996;-75
2024/04/08 01:23:18;;;;;;;6.23;1.90;;;;;;;13.17;100.00;100763.38;5389242;26;19996;-74
2024/04/08 01:25:44;;;;;;;6.72;1.25;;;;;;;13.00;100.00;100744.75;5386615;26;20085;-76
2024/04/08 01:28:09;;;;;;;3.03;1.30;;;;;;;12.80;100.00;100762.28;5389477;26;20032;-75
2024/04/08 01:30:35;;;;;;;4.78;1.85;;;;;;;12.95;100.00;100778.44;5386945;26;20041;-75
2024/04/08 01:33:00;;;;;;;8.10;1.60;;;;;;;13.05;100.00;100733.47;5388842;26;20011;-75
2024/04/08 01:35:25;;;;;;;4.67;1.33;;;;;;;13.15;100.00;100717.97;5386499;26;20405;-75
2024/04/08 01:37:51;;;;;;;3.07;1.20;;;;;;;12.87;100.00;100707.78;5377703;26;20007;-74
2024/04/08 01:40:16;;;;;;;2.67;1.30;;;;;;;13.04;100.00;100724.63;5377147;26;20011;-75
2024/04/08 01:42:42;;;;;;;4.13;1.57;;;;;;;12.44;100.00;100698.53;5369978;26;19994;-75
2024/04/08 01:45:07;;;;;;;2.20;1.10;;;;;;;12.52;100.00;100729.78;5384160;26;20000;-75
2024/04/08 01:47:32;;;;;;;6.87;1.60;;;;;;;12.49;100.00;100727.47;5374352;26;20000;-76
2024/04/08 01:49:59;;;;;;;3.53;1.40;;;;;;;12.80;100.00;100754.25;5375781;26;20063;-75
2024/04/08 01:52:25;;;;;;;5.78;1.67;;;;;;;12.71;100.00;100732.03;5371783;26;20000;-75
2024/04/08 01:54:50;;;;;;;2.42;1.13;;;;;;;12.87;100.00;100739.94;5373190;26;20445;-75
2024/04/08 01:57:16;;;;;;;3.37;1.20;;;;;;;12.86;100.00;100756.22;5371643;26;20033;-75
2024/04/08 01:59:41;;;;;;;3.83;1.40;;;;;;;12.97;100.00;100731.69;5373097;26;19992;-75
2024/04/08 02:02:06;;;;;;;11.20;1.70;;;;;;;12.71;100.00;100717.78;5363730;26;20032;-75
2024/04/08 02:04:32;;;;;;;4.83;1.57;;;;;;;12.91;100.00;100724.38;5362726;26;20001;-76
2024/04/08 02:06:57;;;;;;;7.47;1.70;;;;;;;12.72;100.00;100720.31;5371582;26;19996;-75
2024/04/08 02:09:22;;;;;;;3.30;1.73;;;;;;;12.71;100.00;100713.25;5373331;26;20222;-75
2024/04/08 02:11:48;;;;;;;8.87;2.37;;;;;;;13.07;100.00;100737.66;5372803;26;19996;-74
2024/04/08 02:14:13;;;;;;;5.90;1.70;;;;;;;12.86;100.00;100729.44;5373360;26;20842;-76
2024/04/08 02:16:39;;;;;;;4.30;2.00;;;;;;;12.95;100.00;100704.25;5373041;26;20066;-75
2024/04/08 02:19:04;;;;;;;6.05;1.80;;;;;;;12.93;100.00;100708.94;5342032;26;20004;-74
2024/04/08 02:21:30;;;;;;;5.00;1.40;;;;;;;12.63;100.00;100702.63;5372586;26;20014;-74
2024/04/08 02:23:55;;;;;;;7.73;1.90;;;;;;;12.81;100.00;100726.47;5372790;26;20074;-75
2024/04/08 02:26:21;;;;;;;3.20;1.83;;;;;;;12.79;100.00;100731.97;5373351;26;20324;-75
2024/04/08 02:28:46;;;;;;;3.08;1.85;;;;;;;12.47;100.00;100716.94;5372853;26;20007;-75
2024/04/08 02:31:11;;;;;;;8.57;2.37;;;;;;;12.50;100.00;100737.16;5353939;21;20025;-74
2024/04/08 02:33:37;;;;;;;5.93;1.70;;;;;;;12.83;100.00;100746.69;5297440;27;20612;-75
2024/04/08 02:36:04;;;;;;;8.73;1.80;;;;;;;13.09;100.00;100722.22;5315473;26;20239;-74
2024/04/08 02:38:30;;;;;;;12.80;2.13;;;;;;;12.92;100.00;100690.34;5303824;26;20005;-73
2024/04/08 02:40:55;;;;;;;9.05;2.00;;;;;;;12.81;100.00;100678.22;5289389;27;20349;-75
2024/04/08 02:43:22;;;;;;;8.38;2.63;;;;;;;12.65;100.00;100693.38;5298881;26;20012;-73
2024/04/08 02:45:47;;;;;;;3.58;1.67;;;;;;;12.77;100.00;100693.81;5299529;26;20006;-74
2024/04/08 02:48:15;;;;;;;7.53;2.10;;;;;;;12.55;100.00;100673.19;5293430;26;20012;-74
2024/04/08 02:50:41;;;;;;;11.25;2.35;;;;;;;12.64;100.00;100696.25;5301496;26;19998;-73
2024/04/08 02:53:06;;;;;;;7.50;1.70;;;;;;;12.78;100.00;100681.25;5269312;27;20017;-73
2024/04/08 02:55:32;;;;;;;5.13;1.80;;;;;;;12.83;100.00;100689.56;5282906;27;20006;-74
2024/04/08 02:57:58;;;;;;;4.18;1.88;;;;;;;13.08;100.00;100677.66;5298036;26;20413;-74
2024/04/08 03:00:24;;;;;;;7.50;2.30;;;;;;;13.21;100.00;100660.16;5297559;26;19998;-74
2024/04/08 03:02:49;;;;;;;6.47;1.83;;;;;;;13.17;100.00;100640.91;5324703;26;20256;-74
2024/04/08 03:05:15;;;;;;;4.53;2.07;;;;;;;13.28;100.00;100661.94;5295925;27;20057;-73
2024/04/08 03:07:40;;;;;;;3.90;1.73;;;;;;;13.26;100.00;100655.88;5286485;26;20084;-74
2024/04/08 03:10:06;;;;;;;5.88;1.80;;;;;;;13.19;100.00;100657.63;5278595;27;20002;-74
2024/04/08 03:12:31;;;;;;;10.85;2.17;;;;;;;13.12;100.00;100661.22;5277396;27;20081;-74
2024/04/08 03:14:57;;;;;;;8.37;2.33;;;;;;;13.09;100.00;100655.22;5288320;26;20012;-74
2024/04/08 03:17:23;;;;;;;10.38;2.63;;;;;;;13.27;100.00;100662.06;5303705;26;20689;-74
2024/04/08 03:19:55;;;;;;;4.72;1.92;;;;;;;13.20;100.00;100637.03;5280853;27;20003;-74
2024/04/08 03:22:21;;;;;;;6.70;1.90;;;;;;;13.22;100.00;100640.34;5267126;26;20352;-74
2024/04/08 03:24:46;;;;;;;10.00;1.83;;;;;;;13.22;100.00;100635.81;5282141;27;20002;-74
2024/04/08 03:27:12;;;;;;;8.02;2.35;;;;;;;13.29;100.00;100630.59;5262236;27;20009;-74
2024/04/08 03:29:37;;;;;;;3.38;2.10;;;;;;;13.35;100.00;100624.50;5302231;26;20005;-74
2024/04/08 03:32:03;;;;;;;5.83;2.20;;;;;;;13.36;100.00;100617.28;5278913;26;20116;-74
2024/04/08 03:34:28;;;;;;;4.97;2.15;;;;;;;13.33;100.00;100621.19;5291522;27;21082;-74
2024/04/08 03:36:54;;;;;;;4.37;2.10;;;;;;;13.40;100.00;100637.38;5279903;27;20349;-73
2024/04/08 03:39:19;;;;;;;8.90;2.43;;;;;;;13.33;100.00;100636.44;5263464;27;20005;-72
2024/04/08 03:41:44;;;;;;;8.10;2.77;;;;;;;12.97;100.00;100650.44;5271114;26;20025;-74
2024/04/08 03:44:10;;;;;;;6.33;2.33;;;;;;;12.65;100.00;100687.22;5268562;27;20341;-74
2024/04/08 03:46:35;;;;;;;5.47;2.87;;;;;;;12.74;100.00;100714.78;5278988;27;20068;-74
2024/04/08 03:49:02;;;;;;;5.33;2.13;;;;;;;12.70;100.00;100732.22;5300528;27;20297;-74
2024/04/08 03:51:28;;;;;;;8.75;3.10;;;;;;;12.70;100.00;100737.56;5302867;26;20373;-73
2024/04/08 03:53:53;;;;;;;7.38;2.78;;;;;;;12.51;100.00;100737.00;5269872;27;20042;-73
2024/04/08 03:56:19;;;;;;;6.03;2.67;;;;;;;12.52;100.00;100760.06;5275537;27;20002;-73
2024/04/08 03:58:44;;;;;;;9.03;3.17;;;;;;;12.61;100.00;100755.53;5270684;27;20002;-73
2024/04/08 04:01:10;;;;;;;8.10;2.60;;;;;;;12.65;100.00;100757.69;5279427;26;20013;-74
2024/04/08 04:03:36;;;;;;;9.05;3.63;;;;;;;12.46;100.00;100758.13;5282565;27;20252;-74
2024/04/08 04:06:02;;;;;;;7.15;3.45;;;;;;;12.45;100.00;100764.47;5298932;27;20002;-74
2024/04/08 04:08:28;;;;;;;10.43;4.63;;;;;;;12.40;100.00;100773.00;5273833;26;20020;-75
2024/04/08 04:10:53;;;;;;;;;;;;;;;12.64;100.00;100785.47;5286862;27;20020;-74
2024/04/08 04:13:19;;;;;;;3.42;2.78;;;;;;;12.89;100.00;100770.09;5303644;26;19926;-73
2024/04/08 04:15:44;;;;;;;8.70;3.53;;;;;;;12.83;100.00;100751.19;5270583;27;20009;-74
2024/04/08 04:18:10;;;;;;;10.43;3.00;;;;;;;12.84;100.00;100755.56;5300173;27;20009;-74
2024/04/08 04:20:42;;;;;;;10.10;3.77;;;;;;;12.72;100.00;100767.69;5299600;27;20384;-74
2024/04/08 04:23:14;;;;;;;7.25;3.85;;;;;;;12.81;100.00;100778.19;5282403;27;20241;-74
2024/04/08 04:25:39;;;;;;;9.15;4.30;;;;;;;12.64;100.00;100771.22;5296582;27;20006;-74
2024/04/08 04:28:05;;;;;;;10.88;3.53;;;;;;;12.40;100.00;100781.06;5298046;26;20475;-74
2024/04/08 04:30:30;;;;;;;9.65;4.68;;;;;;;12.71;100.00;100801.66;5295961;27;20006;-74
2024/04/08 04:32:56;;;;;;;10.13;3.90;;;;;;;12.32;100.00;100761.53;5272449;27;20002;-75
2024/04/08 04:35:23;;;;;;;11.05;4.75;;;;;;;11.97;100.00;100777.03;5289983;26;20006;-74
2024/04/08 04:37:50;;;;;;;8.18;3.70;;;;;;;12.18;100.00;100798.69;5265888;27;20018;-74
2024/04/08 04:40:16;;;;;;;8.25;3.63;;;;;;;12.14;100.00;100792.00;5281734;27;20010;-75
2024/04/08 04:42:45;;;;;;;7.72;3.60;;;;;;;12.27;100.00;100798.66;5277812;27;20054;-74
2024/04/08 04:45:11;;;;;;;10.60;4.68;;;;;;;12.36;100.00;100782.44;5288503;26;20013;-74
2024/04/08 04:47:37;;;;;;;8.05;3.95;;;;;;;12.47;100.00;100778.53;5273567;26;20006;-74
2024/04/08 04:50:03;;;;;;;7.18;3.45;;;;;;;12.03;100.00;100762.94;5280957;26;19999;-74
2024/04/08 04:52:29;;;;;;;;;;;;;;;11.97;100.00;100775.19;5284177;27;20080;-74
2024/04/08 04:54:55;;;;;;;10.13;4.05;;;;;;;12.29;100.00;100804.69;5299955;26;19938;-74
2024/04/08 04:57:21;;;;;;;23.73;5.77;;;;;;;12.36;100.00;100774.41;5298727;26;20464;-74
2024/04/08 04:59:46;;;;;;;9.38;3.92;;;;;;;12.36;100.00;100773.53;5297048;27;20033;-75
2024/04/08 05:02:12;;;;;;;10.80;4.78;;;;;;;12.35;100.00;100769.22;5327287;26;19997;-74
2024/04/08 05:04:38;;;;;;;8.63;4.38;;;;;;;12.30;100.00;100768.91;5299154;26;20014;-75
2024/04/08 05:07:03;;;;;;;13.50;5.15;;;;;;;12.00;100.00;100765.97;5292990;27;19998;-75
2024/04/08 05:09:29;;;;;;;12.55;5.75;;;;;;;11.91;100.00;100775.03;5280268;27;20067;-73
2024/04/08 05:11:55;;;;;;;9.33;4.70;;;;;;;11.90;100.00;100771.50;5299145;26;20356;-73
2024/04/08 05:14:20;;;;;;;11.15;6.10;;;;;;;11.78;100.00;100773.69;5302034;26;20005;-74
2024/04/08 05:16:48;;;;;;;11.98;5.63;;;;;;;11.99;100.00;100791.06;5281447;26;19998;-75
2024/04/08 05:19:14;;;;;;;15.43;6.30;;;;;;;11.74;100.00;100769.66;5288865;27;20005;-72
2024/04/08 05:21:39;;;;;;;13.50;7.77;;;;;;;11.75;100.00;100771.34;5297030;26;20073;-74
2024/04/08 05:24:04;;;;;;;13.03;7.17;;;;;;;11.81;100.00;100777.84;5293572;26;20006;-74
2024/04/08 05:26:30;;;;;;;12.87;7.30;;;;;;;11.97;100.00;100790.41;5282762;27;20001;-74
2024/04/08 05:28:55;;;;;;;22.13;8.77;;;;;;;12.04;100.00;100780.69;5312546;26;19998;-73
2024/04/08 05:31:21;;;;;;;15.27;9.23;;;;;;;12.22;100.00;100773.28;5289341;27;20226;-75
2024/04/08 05:33:46;;;;;;;18.20;9.67;;;;;;;12.25;100.00;100762.22;5301383;26;20025;-74
2024/04/08 05:36:11;;;;;;;22.57;9.83;;;;;;;12.27;100.00;100758.50;5271396;27;20017;-74
2024/04/08 05:38:37;;;;;;;22.80;10.23;;;;;;;12.10;100.00;100737.16;5303670;27;20013;-74
2024/04/08 05:41:02;;;;;;;16.57;9.57;;;;;;;12.26;100.00;100746.97;5290574;26;19997;-74
2024/04/08 05:43:28;;;;;;;22.48;10.57;;;;;;;12.33;100.00;100739.09;5290949;26;20811;-74
2024/04/08 05:45:53;;;;;;;25.77;10.70;;;;;;;12.41;100.00;100739.06;5279474;26;20134;-73
2024/04/08 05:48:19;;;;;;;21.93;9.80;;;;;;;12.49;100.00;100735.50;5274836;27;19998;-73
2024/04/08 05:50:48;;;;;;;17.70;9.60;;;;;;;12.54;100.00;100725.94;5297400;27;19994;-73
2024/04/08 05:53:13;;;;;;;13.60;8.75;;;;;;;12.44;100.00;100717.28;5285690;26;20277;-73
2024/04/08 05:55:39;;;;;;;18.93;9.57;;;;;;;12.53;100.00;100723.44;5257127;27;20472;-74
2024/04/08 05:58:04;;;;;;;17.43;9.93;;;;;;;12.58;100.00;100724.56;5319072;26;20359;-73
2024/04/08 06:00:30;;;;;;;15.97;8.70;;;;;;;12.61;100.00;100713.50;5300925;26;20400;-74
2024/04/08 06:02:55;;;;;;;21.80;10.13;;;;;;;12.71;100.00;100713.25;5289485;26;20236;-74
2024/04/08 06:05:23;;;;;;;14.82;7.40;;;;;;;12.81;100.00;100713.88;5278392;26;20003;-74
2024/04/08 06:07:49;;;;;;;18.15;8.07;;;;;;;12.86;100.00;100690.06;5283209;27;20001;-72
2024/04/08 06:10:20;;;;;;;17.80;8.98;;;;;;;12.81;100.00;100680.91;5289784;27;20005;-74
2024/04/08 06:12:46;;;;;;;17.40;9.07;;;;;;;12.61;100.00;100667.97;5287305;26;20017;-74
2024/04/08 06:15:13;;;;;;;15.77;8.13;;;;;;;12.65;100.00;100663.94;5296040;26;20216;-75
2024/04/08 06:17:38;;;;;;;;;;;;;;;12.67;100.00;100677.16;5296534;27;20668;-75
2024/04/08 06:20:04;;;;;;;21.15;9.68;;;;;;;12.87;100.00;100680.19;5267573;27;19934;-74
2024/04/08 06:22:30;;;;;;;19.88;7.57;;;;;;;12.76;100.00;100661.84;5295076;27;20002;-74
2024/04/08 06:24:56;;;;;;;13.70;8.15;;;;;;;12.93;100.00;100667.94;5303560;26;19998;-74
2024/04/08 06:27:21;;;;;;;12.52;6.97;;;;;;;13.10;100.00;100683.66;5296791;27;20475;-75
2024/04/08 06:29:47;;;;;;;12.77;6.50;;;;;;;13.30;100.00;100676.00;5293202;27;20016;-76
2024/04/08 06:32:12;;;;;;;16.03;6.80;;;;;;;13.35;100.00;100677.31;5304036;27;19997;-75
2024/04/08 06:34:37;;;;;;;17.20;5.70;;;;;;;13.33;100.00;100668.63;5289594;26;20010;-73
2024/04/08 06:37:03;;;;;;;11.13;6.67;;;;;;;13.33;100.00;100672.13;5303907;26;20001;-75
2024/04/08 06:39:28;;;;;;;12.30;6.45;;;;;;;13.44;100.00;100682.41;5307610;26;20413;-74
2024/04/08 06:41:54;;;;;;;11.77;5.80;;;;;;;13.60;100.00;100669.81;5268177;27;20425;-74
2024/04/08 06:44:19;;;;;;;15.80;7.33;;;;;;;13.31;100.00;100660.75;5293699;27;20002;-75
2024/04/08 06:46:45;;;;;;;11.40;6.60;;;;;;;13.36;100.00;100666.38;5275791;26;20010;-75
2024/04/08 06:49:10;;;;;;;11.30;6.00;;;;;;;13.46;100.00;100668.78;5301631;26;20232;-75
2024/04/08 06:51:35;;;;;;;12.93;6.37;;;;;;;13.00;100.00;100664.34;5279346;27;20012;-74
2024/04/08 06:54:01;;;;;;;13.97;6.97;;;;;;;12.83;100.00;100677.03;5304019;26;20075;-74
2024/04/08 06:56:26;;;;;;;12.38;6.45;;;;;;;13.22;100.00;100710.06;5304377;26;20508;-75
2024/04/08 06:58:52;;;;;;;13.03;7.23;;;;;;;13.25;100.00;100704.31;5290547;26;20415;-73
2024/04/08 07:01:20;;;;;;;13.63;6.95;;;;;;;13.51;100.00;100704.78;5317472;26;20004;-75
2024/04/08 07:03:45;;;;;;;8.52;5.30;;;;;;;13.61;100.00;100707.22;5305326;26;20073;-74
2024/04/08 07:06:11;;;;;;;12.60;5.65;;;;;;;13.84;100.00;100715.19;5318479;26;20009;-75
2024/04/08 07:08:37;;;;;;;15.30;7.30;;;;;;;13.69;100.00;100692.88;5286281;27;20001;-75
2024/04/08 07:11:02;;;;;;;15.07;7.22;;;;;;;13.43;100.00;100678.03;5294661;26;20009;-73
2024/04/08 07:13:29;;;;;;;18.45;7.00;;;;;;;13.73;100.00;100691.50;5309225;26;20501;-75
2024/04/08 07:15:55;;;;;;;14.07;6.78;;;;;;;13.50;100.00;100697.75;5309161;26;20380;-74
2024/04/08 07:18:24;;;;;;;14.13;6.53;;;;;;;13.49;100.00;100712.19;5269423;27;20476;-74
2024/04/08 07:20:50;;;;;;;12.43;6.22;;;;;;;13.61;100.00;100719.78;5253608;27;20002;-74
2024/04/08 07:23:16;;;;;;;10.82;5.90;;;;;;;13.72;100.00;100732.78;5290416;27;20071;-74
2024/04/08 07:25:42;;;;;;;13.38;5.38;;;;;;;13.91;100.00;100731.38;5302173;26;20012;-74
2024/04/08 07:28:07;;;;;;;9.88;5.50;;;;;;;14.05;100.00;100729.72;5329984;26;20016;-75
2024/04/08 07:30:35;;;;;;;11.50;5.53;;;;;;;14.57;100.00;100739.50;5294841;27;20003;-74
2024/04/08 07:33:00;;;;;;;15.90;7.78;;;;;;;15.91;100.00;100749.63;5272844;27;20013;-74
2024/04/08 07:35:26;;;;;;;10.40;5.95;;;;;;;16.56;100.00;100669.31;5288473;26;20001;-74
2024/04/08 07:37:51;;;;;;;8.98;5.93;;;;;;;16.54;100.00;100604.00;5285429;26;20042;-75
2024/04/08 07:40:16;;;;;;;9.50;5.00;;;;;;;16.86;100.00;100562.78;5288425;27;20299;-74
2024/04/08 07:42:42;;;;;;;7.73;5.37;;;;;;;17.11;100.00;100518.16;5271718;27;20005;-75
2024/04/08 07:45:08;;;;;;;8.30;5.30;;;;;;;17.10;100.00;100404.06;5288813;27;20632;-75
2024/04/08 07:47:34;;;;;;;11.95;5.22;;;;;;;17.66;100.00;100362.03;5288876;26;20002;-73
2024/04/08 07:49:59;;;;;;;10.18;5.78;;;;;;;17.95;100.00;100185.03;5284186;27;20364;-74
2024/04/08 07:52:26;;;;;;;6.22;4.80;;;;;;;18.15;100.00;100079.47;5297320;26;20010;-74
2024/04/08 07:54:52;;;;;;;10.20;5.70;;;;;;;17.96;100.00;100067.88;5293854;26;20141;-75
2024/04/08 07:57:17;;;;;;;7.75;4.80;;;;;;;18.35;100.00;100017.03;5297313;26;20578;-75
2024/04/08 07:59:43;;;;;;;7.33;4.97;;;;;;;18.36;100.00;99905.19;5292760;27;20475;-74
2024/04/08 08:02:08;;;;;;;9.40;4.00;;;;;;;17.97;100.00;99750.03;5293278;26;20214;-73
2024/04/08 08:04:34;;;;;;;9.37;4.47;;;;;;;18.26;100.00;99818.47;5316187;26;20054;-73
2024/04/08 08:06:59;;;;;;;10.43;4.87;;;;;;;17.80;100.00;99734.50;5270392;27;21797;-74
2024/04/08 08:09:24;;;;;;;10.10;4.35;;;;;;;18.89;100.00;99695.19;5294707;26;20017;-74
2024/04/08 08:11:50;;;;;;;6.83;4.33;;;;;;;18.26;100.00;99602.34;5283751;27;20022;-74
2024/04/08 08:14:15;;;;;;;5.23;3.53;;;;;;;18.74;100.00;99636.22;5301395;26;20758;-75
2024/04/08 08:16:42;;;;;;;3.50;2.20;;;;;;;18.63;100.00;99480.31;5301012;26;20002;-75
2024/04/08 08:19:08;;;;;;;5.82;3.58;;;;;;;19.63;100.00;99459.53;5291372;26;20002;-74
2024/04/08 08:21:33;;;;;;;4.05;2.42;;;;;;;19.75;100.00;99269.88;5301427;27;20272;-74
2024/04/08 08:23:59;;;;;;;5.25;2.13;;;;;;;20.31;100.00;99253.19;5299348;27;20092;-77
2024/04/08 08:26:28;;;;;;;3.97;2.30;;;;;;;19.55;100.00;99011.50;5328380;26;20571;-75
2024/04/08 08:28:54;;;;;;;4.75;2.83;;;;;;;20.36;100.00;99334.53;5299294;27;19997;-75
2024/04/08 08:31:19;;;;;;;9.23;3.28;;;;;;;20.30;100.00;98977.84;5329102;26;20002;-75
2024/04/08 08:33:44;;;;;;;6.75;2.35;;;;;;;20.21;100.00;99205.19;5283969;27;20427;-76
2024/04/08 08:36:10;;;;;;;5.05;2.15;;;;;;;20.73;100.00;99249.63;5300377;27;20012;-75
2024/04/08 08:38:36;;;;;;;3.50;2.10;;;;;;;20.97;100.00;99271.66;5300113;27;20046;-76
2024/04/08 08:41:07;;;;;;;2.85;1.95;;;;;;;21.22;100.00;99110.81;5294903;26;20010;-75
2024/04/08 08:43:36;;;;;;;3.55;1.95;;;;;;;21.47;100.00;98917.25;5280398;27;20084;-75
2024/04/08 08:46:03;;;;;;;7.57;2.13;;;;;;;21.69;100.00;99093.38;5298845;27;20029;-76
2024/04/08 08:48:29;;;;;;;5.65;1.92;;;;;;;21.80;99.70;99009.97;5287828;26;20025;-74
2024/04/08 08:50:56;;;;;;;2.13;1.63;;;;;;;21.79;99.10;99058.03;5286968;26;20005;-74
2024/04/08 08:53:21;;;;;;;5.53;1.70;;;;;;;22.47;97.45;99149.09;5301020;26;20002;-74
2024/04/08 08:55:50;;;;;;;3.00;1.93;;;;;;;21.59;91.42;98615.53;5285915;26;20079;-75
2024/04/08 08:58:15;;;;;;;6.40;2.55;;;;;;;20.85;95.86;98933.69;5289946;27;20011;-74
2024/04/08 09:00:41;;;;;;;5.22;2.45;;;;;;;20.94;94.86;98895.97;5283668;27;20002;-74
2024/04/08 09:03:12;;;;;;;5.45;2.05;;;;;;;21.69;93.73;99006.47;5302447;26;20017;-74
2024/04/08 09:05:38;;;;;;;2.33;1.67;;;;;;;21.65;89.34;98728.44;5298224;27;20024;-75
2024/04/08 09:08:04;;;;;;;5.80;2.08;;;;;;;20.52;89.46;98525.75;5294705;26;20572;-73
2024/04/08 09:11:09;;;;;;;6.20;1.77;;;;;;;20.65;96.11;99218.44;5292910;27;20013;-75
2024/04/08 09:13:35;;;;;;;5.53;1.88;;;;;;;21.14;94.58;99223.44;5250643;27;20095;-75
2024/04/08 09:16:01;;;;;;;3.25;1.80;;;;;;;22.37;91.70;99279.66;5294424;27;20001;-75
2024/04/08 09:18:26;;;;;;;6.40;2.37;;;;;;;22.24;88.86;99022.78;5294320;26;20008;-75
2024/04/08 09:20:52;;;;;;;2.53;1.70;;;;;;;22.40;87.57;99016.16;5292073;27;20572;-75
2024/04/08 09:23:17;;;;;;;6.20;2.23;;;;;;;22.63;86.74;99009.19;5304045;26;20879;-75
2024/04/08 09:25:43;;;;;;;5.28;2.90;;;;;;;22.90;84.81;98945.31;5289984;26;20788;-75
2024/04/08 09:28:11;;;;;;;3.95;2.65;;;;;;;22.58;81.79;98669.31;5294151;27;20006;-74
2024/04/08 09:30:36;;;;;;;6.93;2.55;;;;;;;22.51;82.30;98755.88;5296215;26;20360;-74
2024/04/08 09:33:02;;;;;;;4.93;1.92;;;;;;;22.61;84.03;98959.72;5294820;26;20012;-74
2024/04/08 09:35:28;;;;;;;5.00;2.13;;;;;;;21.61;82.97;98633.16;5291591;27;20476;-74
2024/04/08 09:37:55;;;;;;;2.63;2.20;;;;;;;21.58;86.38;99011.13;5285881;27;20006;-74
2024/04/08 09:40:25;;;;;;;4.28;2.25;;;;;;;22.75;85.93;99249.03;5290661;26;20002;-75
2024/04/08 09:42:51;;;;;;;3.92;1.52;;;;;;;23.13;82.42;99003.59;5287843;27;20069;-74
2024/04/08 09:45:18;;;;;;;4.13;1.50;;;;;;;23.28;80.70;98915.53;5288079;26;20045;-75
2024/04/08 09:47:45;;;;;;;3.63;2.00;;;;;;;23.08;78.81;98709.75;5289339;26;20021;-74
2024/04/08 09:50:13;;;;;;;3.15;1.55;;;;;;;23.17;78.59;98782.25;5295677;26;20030;-75
2024/04/08 09:52:42;;;;;;;6.72;1.63;;;;;;;23.16;78.80;98843.25;5295401;27;20539;-73
2024/04/08 09:55:09;;;;;;;3.72;1.55;;;;;;;23.46;77.71;98808.56;5303049;27;20447;-74
2024/04/08 09:57:41;;;;;;;3.55;1.52;;;;;;;23.47;78.08;98850.22;5299097;27;20010;-74
2024/04/08 10:00:18;;;;;;;6.70;2.00;;;;;;;23.02;77.38;98709.00;5298152;26;20082;-74
2024/04/08 10:02:45;;;;;;;2.78;1.20;;;;;;;22.98;80.04;98993.66;5302356;26;20016;-74
2024/04/08 10:05:13;;;;;;;4.90;1.52;;;;;;;23.05;78.66;98876.34;5283704;27;20018;-75
2024/04/08 10:07:40;;;;;;;4.30;1.67;;;;;;;22.59;80.10;98888.47;5268042;27;20006;-73
2024/04/08 10:10:09;;;;;;;4.15;1.17;;;;;;;22.76;80.50;98981.34;5275811;27;20076;-75
2024/04/08 10:12:35;;;;;;;4.60;1.70;;;;;;;22.06;80.45;98755.25;5280968;27;20012;-75
2024/04/08 10:15:16;;;;;;;3.35;1.67;;;;;;;22.53;79.68;98873.31;5267831;27;20488;-75
2024/04/08 10:17:43;;;;;;;4.93;1.55;;;;;;;22.74;79.34;98912.00;5295959;27;20006;-76
2024/04/08 10:20:10;;;;;;;;;;;;;;;23.31;77.86;98936.72;5272253;27;20534;-76
2024/04/08 10:22:36;;;;;;;4.68;1.92;;;;;;;22.71;78.89;98858.16;5294319;27;19938;-75
2024/04/08 10:25:02;;;;;;;2.50;1.27;;;;;;;22.67;80.27;99004.81;5270946;26;20017;-75
2024/04/08 10:27:28;;;;;;;5.03;1.83;;;;;;;22.32;82.19;99068.44;5294032;27;20001;-75
2024/04/08 10:30:00;;;;;;;4.57;1.83;;;;;;;22.05;79.98;98772.63;5287504;26;19998;-74
2024/04/08 10:32:26;;;;;;;5.78;1.98;;;;;;;22.27;82.25;99050.25;5293231;26;20038;-75
2024/04/08 10:34:56;;;;;;;3.95;1.45;;;;;;;22.05;79.18;98700.06;5270744;27;20002;-75
2024/04/08 10:37:21;;;;;;;3.47;1.42;;;;;;;21.90;79.63;98711.09;5270434;27;20017;-75
2024/04/08 10:39:47;;;;;;;4.33;2.33;;;;;;;22.03;78.38;98653.38;5282098;27;20042;-75
2024/04/08 10:42:14;;;;;;;4.20;2.27;;;;;;;21.89;79.36;98721.16;5292103;27;20456;-74
2024/04/08 10:44:39;;;;;;;4.20;1.65;;;;;;;22.26;78.86;98809.41;5275920;26;19999;-75
2024/04/08 10:47:06;;;;;;;4.55;2.10;;;;;;;22.90;76.39;98757.59;5301938;27;20013;-74
2024/04/08 10:49:31;;;;;;;2.05;1.75;;;;;;;22.96;76.99;98805.38;5304341;26;20002;-74
2024/04/08 10:51:56;;;;;;;4.57;1.77;;;;;;;23.08;75.10;98690.69;5284070;27;20020;-75
2024/04/08 10:54:22;;;;;;;2.92;1.77;;;;;;;23.00;75.68;98740.34;5303278;26;20742;-75
2024/04/08 10:56:47;;;;;;;1.97;1.40;;;;;;;22.01;76.24;98514.28;5315110;26;20002;-74
2024/04/08 10:59:13;;;;;;;4.65;1.92;;;;;;;22.77;76.73;98830.63;5287590;26;20277;-75
2024/04/08 11:01:38;;;;;;;9.80;2.10;;;;;;;23.15;75.40;98759.16;5277570;26;20058;-74
2024/04/08 11:04:04;;;;;;;5.23;1.83;;;;;;;23.29;74.54;98691.19;5283239;27;20005;-73
2024/04/08 11:06:31;;;;;;;5.65;1.67;;;;;;;23.68;74.57;98881.50;5270541;27;20337;-75
2024/04/08 11:08:56;;;;;;;4.63;1.95;;;;;;;23.82;73.10;98720.84;5269237;27;20005;-75
2024/04/08 11:11:28;;;;;;;4.75;2.25;;;;;;;23.60;72.15;98531.63;5302753;26;20016;-74
2024/04/08 11:13:53;;;;;;;2.05;1.45;;;;;;;23.96;71.73;98636.41;5276251;26;20134;-73
2024/04/08 11:16:19;;;;;;;4.63;2.10;;;;;;;24.51;71.32;98793.78;5302933;26;20351;-74